CheckWX is a tool to help pilots better visualize weather data.  It is not intended as a substitute for an official pre-flight weather briefing.

06:58:41 UTC

0F2 METAR
Bowie Municipal Airport
Bowie, Texas, USA
Current

24 mins ago

K0F2 210635Z AUTO 16010G18KT 10SM SCT020 25/22 A3000 RMK AO2 T02450218
Observed
Sep-21 @ 06:35 UTC
Wind
  • 160° at 10 KTS
  • Gusting to 18 KTS
Visibility
10 SM
Flight Rules
VFR
Cloud Levels
  • Scattered at 2,000' AGL
Temperature
25°C / 77°F
Dewpoint
22°C / 72°F
Humidity
83%
Altimeter
30" Hg
Pressure
1015.92 hPa
Previous

44 mins ago

K0F2 210615Z AUTO 15008KT 10SM CLR 24/22 A3000 RMK AO2 T02400219
Observed
Sep-21 @ 06:15 UTC
Wind
  • 150° at 8 KTS
Visibility
10 SM
Flight Rules
VFR
Cloud Levels
  • Clear skies
Temperature
24°C / 75°F
Dewpoint
22°C / 72°F
Humidity
89%
Altimeter
30" Hg
Pressure
1015.92 hPa
Previous

1 hour ago

K0F2 210555Z AUTO 15006KT 10SM CLR 23/22 A3001 RMK AO2 T02300216 10230 20218 403220210
Observed
Sep-21 @ 05:55 UTC
Wind
  • 150° at 6 KTS
Visibility
10 SM
Flight Rules
VFR
Cloud Levels
  • Clear skies
Temperature
23°C / 73°F
Dewpoint
22°C / 72°F
Humidity
94%
Altimeter
30.01" Hg
Pressure
1016.22 hPa